createdAt,value
2019-05-06T00:02:43.561Z,14.7
2019-05-06T00:08:04.512Z,17.700001
2019-05-06T00:13:27.235Z,15.1
2019-05-06T00:18:49.910Z,21.200001
2019-05-06T00:24:14.534Z,15.6
2019-05-06T00:29:36.182Z,16
2019-05-06T00:34:58.823Z,18.700001
2019-05-06T00:40:24.344Z,17.200001
2019-05-06T00:45:45.240Z,16.4
2019-05-06T00:51:07.896Z,16.299999
2019-05-06T00:56:30.542Z,17.700001
2019-05-06T01:01:54.185Z,16.299999
2019-05-06T01:07:16.865Z,18.799999
2019-05-06T01:12:39.544Z,15.9
2019-05-06T01:18:04.275Z,17.1
2019-05-06T01:23:26.783Z,21.200001
2019-05-06T01:28:49.468Z,15.9
2019-05-06T01:34:13.757Z,16.1
2019-05-06T01:39:34.778Z,16.700001
2019-05-06T01:44:57.433Z,17.5
2019-05-06T01:50:20.166Z,15.5
2019-05-06T01:55:43.848Z,17
2019-05-06T02:01:06.753Z,18.700001
2019-05-06T02:06:29.401Z,20.9
2019-05-06T02:11:53.615Z,19.700001
2019-05-06T02:17:15.496Z,15.3
2019-05-06T02:22:38.160Z,22.4
2019-05-06T02:28:00.826Z,20
2019-05-06T02:33:24.750Z,21
2019-05-06T02:38:51.394Z,21.200001
2019-05-06T02:44:13.581Z,25.1
2019-05-06T02:49:33.486Z,19.6
2019-05-06T02:54:56.152Z,20.799999
2019-05-06T03:00:19.602Z,20.299999
2019-05-06T03:05:44.050Z,21.4
2019-05-06T03:11:05.922Z,24
2019-05-06T03:16:29.094Z,22.6
2019-05-06T03:21:54.604Z,17.5
2019-05-06T03:27:15.443Z,17.799999
2019-05-06T03:33:00.024Z,21.5
2019-05-06T03:38:03.809Z,21.9
2019-05-06T03:43:24.439Z,22
2019-05-06T03:48:47.140Z,19.700001
2019-05-06T03:54:12.525Z,24.299999
2019-05-06T03:59:33.748Z,20
2019-05-06T04:04:56.510Z,19
2019-05-06T04:10:18.734Z,21.4
2019-05-06T04:15:43.073Z,17.5
2019-05-06T04:21:08.686Z,20.4
2019-05-06T04:26:28.805Z,16.6
2019-05-06T04:31:53.914Z,17.6
2019-05-06T04:37:15.191Z,22
2019-05-06T04:42:37.870Z,17.4
2019-05-06T04:48:03.298Z,15.4
2019-05-06T04:53:26.930Z,19.200001
2019-05-06T04:58:47.027Z,19.299999
2019-05-06T05:04:24.195Z,17.1
2019-05-06T05:09:33.409Z,17.5
2019-05-06T05:14:56.085Z,16.799999
2019-05-06T05:20:19.329Z,17.1
2019-05-06T05:25:43.172Z,19.1
2019-05-06T05:31:05.809Z,14
2019-05-06T05:36:28.486Z,15.5
2019-05-06T05:41:52.207Z,13.2
2019-05-06T05:47:15.744Z,10.7
2019-05-06T05:52:38.399Z,11.5
2019-05-06T05:58:03.110Z,14.2
2019-05-06T06:03:24.711Z,12.9
2019-05-06T06:08:47.403Z,12
2019-05-06T06:14:12.549Z,13.9
2019-05-06T06:19:32.973Z,13.5
2019-05-06T06:24:55.666Z,12.8
2019-05-06T06:30:18.301Z,13
2019-05-06T06:35:42.601Z,12.4
2019-05-06T06:41:04.689Z,10.8
2019-05-06T06:46:27.445Z,11.9
2019-05-06T06:51:50.145Z,12.5
2019-05-06T06:57:14.920Z,12.2
2019-05-06T07:02:37.686Z,11.4
2019-05-06T07:08:02.145Z,15.7
2019-05-06T07:13:23.290Z,12.7
2019-05-06T07:18:48.132Z,12.5
2019-05-06T07:24:13.073Z,12.5
2019-05-06T07:29:34.574Z,12.7
2019-05-06T07:34:57.189Z,13.4
2019-05-06T07:40:21.540Z,11.7
2019-05-06T07:45:42.605Z,12.1
2019-05-06T07:51:05.323Z,10.3
2019-05-06T07:56:29.131Z,10.4
2019-05-06T08:01:54.017Z,11.7
2019-05-06T08:07:15.780Z,11.5
2019-05-06T08:12:38.423Z,9.8
2019-05-06T08:18:03.571Z,13.1
2019-05-06T08:23:24.777Z,9.8
2019-05-06T08:28:47.503Z,10
2019-05-06T08:34:12.241Z,10.6
2019-05-06T08:39:33.579Z,8.4
2019-05-06T08:44:56.831Z,10
2019-05-06T08:50:21.688Z,7.8
2019-05-06T08:55:42.926Z,5.6
2019-05-06T09:01:05.639Z,7.3
2019-05-06T09:06:33.967Z,6.4
2019-05-06T09:11:54.097Z,7.2
2019-05-06T09:17:16.757Z,8.8
2019-05-06T09:22:39.552Z,7.7
2019-05-06T09:28:03.193Z,7.4
2019-05-06T09:33:26.214Z,8.2
2019-05-06T09:38:48.880Z,5.5
2019-05-06T09:44:13.037Z,4.2
2019-05-06T09:49:35.640Z,5.3
2019-05-06T09:54:58.812Z,5.1
2019-05-06T10:00:23.473Z,5.7
2019-05-06T10:05:45.119Z,4.7
2019-05-06T10:11:07.755Z,5.7
2019-05-06T10:16:32.445Z,6.2
2019-05-06T10:21:53.224Z,5.3
2019-05-06T10:27:15.820Z,5.4
2019-05-06T10:32:38.919Z,6
2019-05-06T10:38:03.362Z,4.4
2019-05-06T10:43:26.021Z,4.2
2019-05-06T10:48:48.621Z,5.4
2019-05-06T10:54:12.222Z,4.6
2019-05-06T10:59:34.840Z,4.4
2019-05-06T11:04:57.526Z,3.9
2019-05-06T11:10:27.156Z,4.3
2019-05-06T11:15:45.173Z,6
2019-05-06T11:21:07.872Z,4.4
2019-05-06T11:26:30.634Z,4.1
2019-05-06T11:31:54.235Z,3.5
2019-05-06T11:37:16.401Z,5
2019-05-06T11:42:39.558Z,4.1
2019-05-06T11:48:03.212Z,5.1
2019-05-06T11:53:25.855Z,3.9
2019-05-06T11:58:48.561Z,3.8
2019-05-06T12:04:13.854Z,4.5
2019-05-06T12:09:34.916Z,4.5
2019-05-06T12:14:57.564Z,4.7
2019-05-06T12:20:22.179Z,7.5
2019-05-06T12:25:45.177Z,7.1
2019-05-06T12:31:06.068Z,7.8
2019-05-06T12:36:29.577Z,6.7
2019-05-06T12:41:53.843Z,9.2
2019-05-06T12:47:16.494Z,6.8
2019-05-06T12:52:39.214Z,6.7
2019-05-06T12:58:03.057Z,6.3
2019-05-06T13:03:25.613Z,6.7
2019-05-06T13:08:58.212Z,8.3
2019-05-06T13:14:12.673Z,5.9
2019-05-06T13:19:34.690Z,5.8
2019-05-06T13:24:57.412Z,7.4
2019-05-06T13:30:22.621Z,6.3
2019-05-06T13:35:42.788Z,7.7
2019-05-06T13:41:05.421Z,7.3
2019-05-06T13:46:28.056Z,6.3
2019-05-06T13:51:52.283Z,6.9
2019-05-06T13:57:15.369Z,7.9
2019-05-06T14:02:38.020Z,6.3
2019-05-06T14:08:04.029Z,6.1
2019-05-06T14:13:24.460Z,7.9
2019-05-06T14:18:47.141Z,8.1
2019-05-06T14:24:09.802Z,8.7
2019-05-06T14:29:33.485Z,7.3
2019-05-06T14:34:56.099Z,8
2019-05-06T14:40:18.809Z,8
2019-05-06T14:45:42.418Z,10.1
2019-05-06T14:51:05.021Z,8.7
2019-05-06T14:56:27.687Z,8.6
2019-05-06T15:01:53.592Z,11.2
2019-05-06T15:07:13.983Z,11.6
2019-05-06T15:12:36.625Z,11
2019-05-06T15:17:59.382Z,13.2
2019-05-06T15:23:23.057Z,12.7
2019-05-06T15:28:45.702Z,11.8
2019-05-06T15:34:07.373Z,11.5
2019-05-06T15:39:32.120Z,11.8
2019-05-06T15:44:53.470Z,12.3
2019-05-06T15:50:16.219Z,12.4
2019-05-06T15:55:38.876Z,13.9
2019-05-06T16:01:03.064Z,15.9
2019-05-06T16:06:24.328Z,21.9
2019-05-06T16:11:47.050Z,27.5
2019-05-06T16:17:09.730Z,33.5
2019-05-06T16:22:33.872Z,38.299999
2019-05-06T16:27:56.186Z,35.400002
2019-05-06T16:33:19.168Z,38.5
2019-05-06T16:38:42.892Z,27
2019-05-06T16:44:05.157Z,21.799999
2019-05-06T16:49:27.898Z,21.700001
2019-05-06T16:54:53.516Z,20.299999
2019-05-06T17:00:16.215Z,19.4
2019-05-06T17:05:39.149Z,22.200001
2019-05-06T17:11:04.726Z,18.700001
2019-05-06T17:16:25.493Z,17.6
2019-05-06T17:21:48.603Z,20.200001
2019-05-06T17:27:15.251Z,20
2019-05-06T17:32:36.921Z,17.4
2019-05-06T17:37:59.555Z,19.299999
2019-05-06T17:43:22.654Z,20.6
2019-05-06T17:48:45.012Z,23.1
2019-05-06T17:54:07.656Z,23.6
2019-05-06T17:59:33.130Z,22.5
2019-05-06T18:04:54.975Z,21.200001
2019-05-06T18:10:17.619Z,24.799999
2019-05-06T18:15:43.040Z,23.9
2019-05-06T18:21:03.950Z,25.200001
2019-05-06T18:26:26.722Z,26.4
2019-05-06T18:31:49.464Z,27.5
2019-05-06T18:37:13.119Z,29.4
2019-05-06T18:42:35.849Z,25.9
2019-05-06T18:47:59.583Z,28.200001
2019-05-06T18:53:23.286Z,27.9
2019-05-06T18:58:45.973Z,28.299999
2019-05-06T19:04:08.621Z,25.1
2019-05-06T19:09:33.161Z,26.9
2019-05-06T19:14:55.794Z,24.6
2019-05-06T19:20:18.463Z,27.700001
2019-05-06T19:25:42.787Z,28.799999
2019-05-06T19:31:04.813Z,30.1
2019-05-06T19:36:27.498Z,26.799999
2019-05-06T19:41:50.213Z,35.299999
2019-05-06T19:47:13.263Z,33.900002
2019-05-06T19:52:35.766Z,35.099998
2019-05-06T19:57:58.721Z,39.799999
2019-05-06T20:03:23.150Z,35.700001
2019-05-06T20:08:45.328Z,37.599998
2019-05-06T20:14:08.041Z,38.099998
2019-05-06T20:19:33.338Z,42.099998
2019-05-06T20:24:54.915Z,36.5
2019-05-06T20:30:17.635Z,37.799999
2019-05-06T20:35:43.124Z,42
2019-05-06T20:41:04.456Z,46.900002
2019-05-06T20:46:27.150Z,35.599998
2019-05-06T20:51:51.889Z,35.400002
2019-05-06T20:57:12.567Z,31.299999
2019-05-06T21:02:35.251Z,31.299999
2019-05-06T21:07:57.919Z,36.900002
2019-05-06T21:13:29.342Z,59.799999
2019-05-06T21:18:45.377Z,42.299999
2019-05-06T21:24:08.124Z,45.400002
2019-05-06T21:29:32.435Z,51
2019-05-06T21:34:53.530Z,48
2019-05-06T21:40:16.268Z,48.700001
2019-05-06T21:45:39.035Z,50.5
2019-05-06T21:51:02.779Z,46.900002
2019-05-06T21:56:25.467Z,59.799999
2019-05-06T22:01:48.137Z,54.599998
2019-05-06T22:07:12.148Z,45.299999
2019-05-06T22:12:34.722Z,63.599998
2019-05-06T22:17:58.121Z,46.099998
2019-05-06T22:23:22.161Z,54.299999
2019-05-06T22:28:44.487Z,49.200001
2019-05-06T22:34:07.166Z,65.599998
2019-05-06T22:39:31.658Z,54.5
2019-05-06T22:44:53.737Z,81.099998
2019-05-06T22:50:16.496Z,59
2019-05-06T22:55:39.152Z,59.200001
2019-05-06T23:01:04.600Z,53.799999
2019-05-06T23:06:26.195Z,69.699997
2019-05-06T23:11:48.896Z,65.699997
2019-05-06T23:17:12.644Z,60
2019-05-06T23:22:34.324Z,65.300003
2019-05-06T23:27:57.805Z,64.699997
2019-05-06T23:33:22.816Z,65.199997
2019-05-06T23:38:43.238Z,78.400002
2019-05-06T23:44:05.907Z,66.300003
2019-05-06T23:49:29.010Z,85.099998
2019-05-06T23:54:52.655Z,67.099998
